Fort Gay, West Virginia
Current Conditions -  °F | °C
As of 4:51 AM on Monday 22 Dec 2014 (Local Time) from KHTS Reporting Station
Overcast Overcast  
Wind Chill: 35°   Ceiling: 5000
Heat Index: 35°   Visibility: 10mi
Dew Point: 28°   Wind: 3mph
Humidity: 76%   Direction: 100°E
Pressure: 30.04"   Gusts: NA
Location:  38.12°N, 82.6°W
Report Text: KHTS 220951Z AUTO 10003KT 10SM OVC050 02/M02 A3004 RMK AO2 SLP177 T00171022 TSNO
Loading
Personal Weather Stations






























Interactive Weather Map New forecast layout! Learn more

10-Day Weather Forecast

Advertisements
Track Severe Weather on mobile